Praha, Texas
Current Conditions -  °F | °C
As of 10:10 AM on Thursday 18 Dec 2014 (Local Time) from K3T5 Reporting Station
Haze Haze  
Wind Chill: 55°   Ceiling: 400
Heat Index: 55°   Visibility: 3mi
Dew Point: 54°   Wind: 6mph
Humidity: 94%   Direction: 350°N
Pressure: 30.12"   Gusts: NA
Location:  29.7626°N, 97.1228°W
Report Text: K3T5 181610Z AUTO 35005KT 3SM BR OVC004 13/12 A3012 RMK AO2 T01300120
Loading
Personal Weather Stations






























Interactive Weather Map New forecast layout! Learn more

10-Day Weather Forecast

Advertisements
Track Severe Weather on mobile